Harrisburg International Airport
KMDT : now visible

Airfield :











YOU CAN JOIN US ON...

 
LOGIN :

Register | Disclaimer

   EN    FR    IT 

 









Legend :    VFR   Marginal VFR   IFR   Intensive IFR   Very Intensive IFR
Visi :
Ceiling :
>= 8 km
>= 3000ft
5 to 8 km
1000 to 3000 ft
1500m to 5 km
500 to 1000 ft
800 to 1500m
200 to 500 ft
< 800m
< 200 ft
Symbols :   Thunderstorms  Fog  Heavy snow  Heavy precipitations  Wind > 20 kt






- Airport Elevation : 310 ft
- IATA code : MDT


KMDT - Harrisburg International

CURRENT METAR :
  • 250256Z 00000KT 10SM OVC090 17/11 A3029 RMK AO2 SLP257 T01720111 53012

EXPIRED METARs :
  • 250156Z 21003KT 10SM OVC080 18/12 A3028 RMK AO2 SLP252 T01780117
  • 250056Z 00000KT 10SM FEW042 BKN085 18/12 A3027 RMK AO2 SLP250 T01830122

TAF KMDT
Valid from the 25 at 00:00 until the 26 at 00:00 UTC


242346Z 2500/2524 00000KT P6SM OVC050
FM251200 10006KT P6SM OVC070
KZNY FIR / North America



MET'MAP, your aeronautical weather chart ! - Copyright ORBIFLY December 2007 - Disclaimer

ORBIFLY MET'MAP TEAM :

Programming & Development : Alexandra Zaïnal
Original concept : Baudouin d'Aumeries
Technical & hardware support : Manuel Goepfert
Assistance : Marc-Olivier Méhu

Contact : metmap@orbifly.com




SOURCES & CREDITS :

   NOAA       Earth
Advisory